Arvilla, North Dakota
Current Conditions -  °F | °C
As of 10:58 PM on Wednesday 26 Nov 2014 (Local Time) from KRDR Reporting Station
Clear Clear  
Wind Chill: -25°   Ceiling: Unl
Heat Index: -25°   Visibility: 10mi
Dew Point: -28°   Wind: 3mph
Humidity: 77%   Direction: 290°WNW
Pressure: 30.55"   Gusts: NA
Location:  47.92°N, 97.49°W
Report Text: KRDR 270458Z AUTO 29003KT 10SM CLR M25/M28 A3055 RMK AO2 SLP381 T12521281
Loading
Personal Weather Stations






























Interactive Weather Map New forecast layout! Learn more

10-Day Weather Forecast

Advertisements
Track Severe Weather on mobile